Time;durP1;ratioP1;P1;durP2;ratioP2;P2;SDS_P1;SDS_P2;PMS_P1;PMS_P2;Temp;Humidity;BMP_temperature;BMP_pressure;BME280_temperature;BME280_humidity;BME280_pressure;Samples;Min_cycle;Max_cycle;Signal;HPM_P1;HPM_P2
2023/12/18 00:01:09;;;;;;;22.27;15.63;;;3.50;99.90;;;;;;5052209;28;20707;-72
2023/12/18 00:03:35;;;;;;;23.97;15.03;;;3.40;99.90;;;;;;5052121;28;20171;-72
2023/12/18 00:06:00;;;;;;;23.33;16.43;;;3.40;99.90;;;;;;5052180;28;20521;-72
2023/12/18 00:08:26;;;;;;;20.73;15.37;;;3.40;99.90;;;;;;5052352;28;20221;-71
2023/12/18 00:10:52;;;;;;;21.40;16.37;;;3.60;99.90;;;;;;5053114;28;20178;-72
2023/12/18 00:13:17;;;;;;;23.07;15.90;;;3.50;99.90;;;;;;5051934;28;20198;-72
2023/12/18 00:15:43;;;;;;;29.07;15.70;;;3.50;99.90;;;;;;5061048;28;20193;-73
2023/12/18 00:18:09;;;;;;;26.63;16.73;;;3.60;99.90;;;;;;5071526;28;20206;-72
2023/12/18 00:20:34;;;;;;;24.20;17.77;;;3.40;99.90;;;;;;5071482;28;20266;-72
2023/12/18 00:23:00;;;;;;;29.00;17.67;;;3.40;99.90;;;;;;5071564;28;20253;-72
2023/12/18 00:25:25;;;;;;;21.30;17.07;;;3.30;99.90;;;;;;5071934;28;20178;-73
2023/12/18 00:27:51;;;;;;;23.73;16.00;;;3.20;99.90;;;;;;5071874;28;20233;-72
2023/12/18 00:30:17;;;;;;;24.47;15.33;;;3.00;99.90;;;;;;5061720;28;20190;-72
2023/12/18 00:32:42;;;;;;;25.63;15.13;;;3.00;99.90;;;;;;5051579;28;20649;-72
2023/12/18 00:35:08;;;;;;;18.90;14.50;;;2.90;99.90;;;;;;5033498;28;20175;-73
2023/12/18 00:37:34;;;;;;;24.00;14.47;;;2.90;99.90;;;;;;5051803;28;20558;-72
2023/12/18 00:39:59;;;;;;;23.63;15.67;;;2.90;99.90;;;;;;5062834;28;20170;-72
2023/12/18 00:42:25;;;;;;;20.90;15.00;;;2.90;99.90;;;;;;5071384;28;20313;-72
2023/12/18 00:44:50;;;;;;;21.63;14.13;;;2.90;99.90;;;;;;5071266;28;20182;-72
2023/12/18 00:47:18;;;;;;;22.73;16.50;;;2.90;99.90;;;;;;5071085;28;20177;-72
2023/12/18 00:49:44;;;;;;;19.90;15.00;;;2.80;99.90;;;;;;5071300;28;20244;-72
2023/12/18 00:52:09;;;;;;;24.70;15.37;;;2.90;99.90;;;;;;5071041;28;20272;-72
2023/12/18 00:54:35;;;;;;;21.17;15.53;;;2.80;99.90;;;;;;5060979;28;20786;-72
2023/12/18 00:57:00;;;;;;;20.20;14.93;;;2.70;99.90;;;;;;5051722;28;20182;-72
2023/12/18 00:59:26;;;;;;;31.77;15.87;;;2.70;99.90;;;;;;5051616;28;20226;-72
2023/12/18 01:01:52;;;;;;;25.20;15.90;;;2.70;99.90;;;;;;5051354;28;20253;-72
2023/12/18 01:04:17;;;;;;;24.27;15.30;;;2.70;99.90;;;;;;5050995;28;20264;-72
2023/12/18 01:06:43;;;;;;;24.27;15.50;;;2.80;99.90;;;;;;5052940;28;20696;-73
2023/12/18 01:09:09;;;;;;;23.13;16.40;;;2.90;99.90;;;;;;5071134;28;20197;-73
2023/12/18 01:11:35;;;;;;;23.87;16.60;;;2.80;99.90;;;;;;5071117;28;20673;-73
2023/12/18 01:14:01;;;;;;;23.57;15.43;;;2.80;99.90;;;;;;5070816;28;20244;-73
2023/12/18 01:16:26;;;;;;;22.00;15.27;;;2.80;99.90;;;;;;5071235;28;20181;-73
2023/12/18 01:18:52;;;;;;;21.80;15.13;;;2.70;99.90;;;;;;5070861;28;20206;-72
2023/12/18 01:21:17;;;;;;;21.37;14.97;;;2.70;99.90;;;;;;5070339;28;20162;-72
2023/12/18 01:23:43;;;;;;;29.10;15.77;;;2.70;99.90;;;;;;5050804;28;20545;-72
2023/12/18 01:26:08;;;;;;;28.07;15.60;;;2.70;99.90;;;;;;5050494;28;20219;-72
2023/12/18 01:28:34;;;;;;;24.27;15.97;;;2.70;99.90;;;;;;5051007;28;20198;-72
2023/12/18 01:31:00;;;;;;;21.60;15.43;;;2.60;99.90;;;;;;5050482;28;20189;-72
2023/12/18 01:33:26;;;;;;;28.23;15.97;;;2.60;99.90;;;;;;5050676;28;20186;-71
2023/12/18 01:35:51;;;;;;;22.83;15.63;;;2.60;99.90;;;;;;5061971;28;20660;-72
2023/12/18 01:38:17;;;;;;;24.17;15.47;;;2.70;99.90;;;;;;5070816;28;20621;-72
2023/12/18 01:40:44;;;;;;;19.77;15.23;;;2.60;99.90;;;;;;5052859;28;20197;-72
2023/12/18 01:43:23;;;;;;;24.23;15.97;;;2.60;99.90;;;;;;5052554;28;20166;-72
2023/12/18 01:46:00;;;;;;;23.00;16.20;;;2.60;99.90;;;;;;5052892;28;20599;-72
2023/12/18 01:48:29;;;;;;;20.67;16.13;;;2.50;99.90;;;;;;5053309;28;20189;-72
2023/12/18 01:50:57;;;;;;;28.57;16.17;;;2.60;99.90;;;;;;5056431;28;20273;-72
2023/12/18 01:53:42;;;;;;;21.57;15.17;;;2.60;99.90;;;;;;5050419;28;20206;-72
2023/12/18 01:56:09;;;;;;;23.37;15.87;;;2.60;99.90;;;;;;5050384;28;20538;-72
2023/12/18 01:58:36;;;;;;;24.77;15.03;;;2.40;99.90;;;;;;5050659;28;20191;-70
2023/12/18 02:01:02;;;;;;;27.83;15.50;;;2.30;99.90;;;;;;5050341;28;20306;-72
2023/12/18 02:03:30;;;;;;;25.50;15.30;;;2.40;99.90;;;;;;5062744;28;20668;-72
2023/12/18 02:05:59;;;;;;;25.27;14.97;;;2.40;99.90;;;;;;5074115;28;20180;-72
2023/12/18 02:08:25;;;;;;;33.20;17.40;;;2.30;99.90;;;;;;5073895;28;20321;-71
2023/12/18 02:10:52;;;;;;;23.83;16.47;;;2.30;99.90;;;;;;5072430;28;20178;-71
2023/12/18 02:13:17;;;;;;;36.10;20.27;;;2.30;99.90;;;;;;5054024;28;20234;-72
2023/12/18 02:15:43;;;;;;;27.97;17.33;;;2.20;99.90;;;;;;5036288;28;20245;-72
2023/12/18 02:18:09;;;;;;;38.63;18.80;;;2.30;99.90;;;;;;5073024;28;20677;-71
2023/12/18 02:20:34;;;;;;;34.53;17.93;;;2.20;99.90;;;;;;5074072;28;20200;-72
2023/12/18 02:23:00;;;;;;;27.23;17.23;;;2.30;99.90;;;;;;5055940;28;20244;-72
2023/12/18 02:25:26;;;;;;;32.43;17.27;;;2.30;99.90;;;;;;5074157;28;20194;-72
2023/12/18 02:27:51;;;;;;;31.97;17.50;;;2.40;99.90;;;;;;5073955;28;20687;-72
2023/12/18 02:30:19;;;;;;;29.03;17.90;;;2.30;99.90;;;;;;5074060;28;20206;-71
2023/12/18 02:32:46;;;;;;;35.27;19.90;;;2.30;99.90;;;;;;5073559;28;20233;-71
2023/12/18 02:35:12;;;;;;;32.53;18.73;;;2.30;99.90;;;;;;5073812;28;20509;-72
2023/12/18 02:37:37;;;;;;;33.87;17.93;;;2.40;99.90;;;;;;5073818;28;20211;-72
2023/12/18 02:40:03;;;;;;;28.00;16.80;;;2.30;99.90;;;;;;5073843;28;20706;-71
2023/12/18 02:42:29;;;;;;;31.30;18.20;;;2.30;99.90;;;;;;5073979;28;20170;-72
2023/12/18 02:44:56;;;;;;;40.90;19.07;;;2.40;99.90;;;;;;5036708;28;20184;-72
2023/12/18 02:47:22;;;;;;;33.23;18.17;;;2.30;99.90;;;;;;5053556;28;20178;-72
2023/12/18 02:49:48;;;;;;;26.17;17.30;;;2.30;99.90;;;;;;5053840;28;20537;-72
2023/12/18 02:52:13;;;;;;;30.20;17.43;;;2.40;99.90;;;;;;5053400;28;20543;-72
2023/12/18 02:54:39;;;;;;;27.00;17.07;;;2.30;99.90;;;;;;5053454;28;20187;-72
2023/12/18 02:57:05;;;;;;;31.70;18.90;;;2.30;99.90;;;;;;5053633;28;20246;-72
2023/12/18 02:59:30;;;;;;;26.30;17.83;;;2.30;99.90;;;;;;5070444;28;20194;-72
2023/12/18 03:01:56;;;;;;;31.07;16.97;;;2.30;99.90;;;;;;5073254;28;20177;-72
2023/12/18 03:04:22;;;;;;;30.47;17.17;;;2.20;99.90;;;;;;5073440;28;20206;-71
2023/12/18 03:06:49;;;;;;;25.53;15.40;;;2.20;99.90;;;;;;5073486;28;20201;-71
2023/12/18 03:09:14;;;;;;;29.73;17.17;;;2.10;99.90;;;;;;5073249;28;20190;-72
2023/12/18 03:11:43;;;;;;;28.50;16.70;;;2.00;99.90;;;;;;5073301;28;20198;-71
2023/12/18 03:14:10;;;;;;;30.33;17.40;;;2.10;99.90;;;;;;5069945;28;20178;-72
2023/12/18 03:16:36;;;;;;;30.43;18.43;;;2.00;99.90;;;;;;5073317;28;20257;-72
2023/12/18 03:19:02;;;;;;;42.27;19.23;;;1.90;99.90;;;;;;5096119;23;20226;-69
2023/12/18 03:21:28;;;;;;;33.77;18.77;;;1.90;99.90;;;;;;5033179;28;20245;-69
2023/12/18 03:23:54;;;;;;;53.77;25.47;;;1.90;99.90;;;;;;5032913;28;20175;-68
2023/12/18 03:26:19;;;;;;;45.47;21.90;;;2.00;99.90;;;;;;5032796;28;20262;-68
2023/12/18 03:28:45;;;;;;;32.67;19.20;;;1.90;99.90;;;;;;5032327;28;20203;-69
2023/12/18 03:31:11;;;;;;;39.90;19.07;;;2.00;99.90;;;;;;5032886;28;20171;-69
2023/12/18 03:33:37;;;;;;;48.13;22.20;;;1.90;99.90;;;;;;5032860;28;20167;-69
2023/12/18 03:36:04;;;;;;;55.43;24.80;;;1.90;99.90;;;;;;5032437;28;20233;-69
2023/12/18 03:38:30;;;;;;;51.60;22.57;;;2.00;99.90;;;;;;5032402;28;20191;-69
2023/12/18 03:40:56;;;;;;;40.30;22.90;;;2.00;99.90;;;;;;5032372;28;20171;-69
2023/12/18 03:43:23;;;;;;;35.33;20.67;;;2.00;99.90;;;;;;5032998;28;20168;-68
2023/12/18 03:45:49;;;;;;;36.23;20.13;;;2.10;99.90;;;;;;5033031;28;20171;-68
2023/12/18 03:48:15;;;;;;;44.33;23.33;;;2.10;99.90;;;;;;5032676;28;20472;-69
2023/12/18 03:50:41;;;;;;;36.60;21.20;;;2.20;99.90;;;;;;5032822;28;20256;-68
2023/12/18 03:53:08;;;;;;;39.77;22.00;;;2.30;99.90;;;;;;5033195;28;20678;-69
2023/12/18 03:55:34;;;;;;;46.87;25.23;;;2.20;99.90;;;;;;5033057;28;20250;-68
2023/12/18 03:58:00;;;;;;;41.13;22.37;;;2.20;99.90;;;;;;5032575;28;20190;-68
2023/12/18 04:00:26;;;;;;;41.47;21.47;;;2.20;99.90;;;;;;5032495;28;20250;-68
2023/12/18 04:02:52;;;;;;;35.37;22.40;;;2.20;99.90;;;;;;5032794;28;20206;-68
2023/12/18 04:05:18;;;;;;;42.53;23.73;;;2.30;99.90;;;;;;5032410;28;20278;-68
2023/12/18 04:07:43;;;;;;;37.90;20.73;;;2.30;99.90;;;;;;5032262;28;20188;-69
2023/12/18 04:10:09;;;;;;;40.90;22.43;;;2.30;99.90;;;;;;5032434;28;20179;-68
2023/12/18 04:12:36;;;;;;;43.60;21.67;;;2.30;99.90;;;;;;5032045;28;20195;-68
2023/12/18 04:15:01;;;;;;;42.83;21.33;;;2.30;99.90;;;;;;5031939;28;20593;-68
2023/12/18 04:17:27;;;;;;;33.83;20.00;;;2.20;99.90;;;;;;5032246;28;20176;-69
2023/12/18 04:19:53;;;;;;;33.77;19.60;;;2.20;99.90;;;;;;5032127;28;20203;-68
2023/12/18 04:22:18;;;;;;;38.63;18.93;;;2.20;99.90;;;;;;5032116;28;20615;-68
2023/12/18 04:24:44;;;;;;;39.60;19.00;;;2.20;99.90;;;;;;5031787;28;20214;-69
2023/12/18 04:27:09;;;;;;;35.87;18.43;;;2.20;99.90;;;;;;5031823;28;20201;-68
2023/12/18 04:29:37;;;;;;;36.57;19.43;;;2.10;99.90;;;;;;5032042;28;20195;-68
2023/12/18 04:32:04;;;;;;;33.83;17.87;;;2.10;99.90;;;;;;5031875;28;20253;-68
2023/12/18 04:34:29;;;;;;;39.30;19.33;;;2.10;99.90;;;;;;5031942;28;20168;-69
2023/12/18 04:36:55;;;;;;;33.07;17.90;;;2.00;99.90;;;;;;5031957;28;20224;-68
2023/12/18 04:39:21;;;;;;;38.93;19.90;;;2.10;99.90;;;;;;5032100;28;20666;-68
2023/12/18 04:41:46;;;;;;;37.63;21.43;;;1.90;99.90;;;;;;5031587;28;20600;-68
2023/12/18 04:44:12;;;;;;;43.73;20.70;;;1.90;99.90;;;;;;5031715;28;20192;-68
2023/12/18 04:46:38;;;;;;;42.77;22.20;;;1.80;99.90;;;;;;5031604;28;20171;-69
2023/12/18 04:49:04;;;;;;;38.97;19.30;;;1.90;99.90;;;;;;5031325;28;20243;-68
2023/12/18 04:51:30;;;;;;;27.57;17.57;;;1.80;99.90;;;;;;5031362;28;20210;-69
2023/12/18 04:53:56;;;;;;;29.10;17.70;;;1.80;99.90;;;;;;5030933;28;20185;-69
2023/12/18 04:56:22;;;;;;;39.67;21.13;;;1.70;99.90;;;;;;5031378;28;20179;-70
2023/12/18 04:58:48;;;;;;;32.80;19.67;;;1.80;99.90;;;;;;5031241;28;20195;-69
2023/12/18 05:01:13;;;;;;;37.30;20.70;;;1.80;99.90;;;;;;5031100;28;20179;-69
2023/12/18 05:03:39;;;;;;;32.57;20.10;;;1.70;99.90;;;;;;5031126;28;20185;-69
2023/12/18 05:06:17;;;;;;;33.60;18.80;;;1.70;99.90;;;;;;5031166;28;20183;-69
2023/12/18 05:08:42;;;;;;;32.03;18.50;;;1.50;99.90;;;;;;5030972;28;20293;-69
2023/12/18 05:11:08;;;;;;;32.30;18.10;;;1.50;99.90;;;;;;5031002;28;20271;-69
2023/12/18 05:13:33;;;;;;;42.50;21.70;;;1.40;99.90;;;;;;5031031;28;20226;-69
2023/12/18 05:15:59;;;;;;;39.03;18.57;;;1.30;99.90;;;;;;5031177;28;20175;-69
2023/12/18 05:18:25;;;;;;;39.93;19.30;;;1.30;99.90;;;;;;5030860;28;20235;-69
2023/12/18 05:20:53;;;;;;;35.63;19.27;;;1.30;99.90;;;;;;5031236;28;20229;-69
2023/12/18 05:23:18;;;;;;;38.47;20.40;;;1.40;99.90;;;;;;5012838;28;20199;-69
2023/12/18 05:25:44;;;;;;;36.30;20.13;;;1.40;99.90;;;;;;5031077;28;20638;-69
2023/12/18 05:28:10;;;;;;;36.30;20.13;;;1.50;99.90;;;;;;5030825;28;20184;-69
2023/12/18 05:30:36;;;;;;;38.87;18.93;;;1.30;99.90;;;;;;5030952;28;20172;-69
2023/12/18 05:33:02;;;;;;;37.20;21.00;;;1.20;99.90;;;;;;5030596;28;20195;-69
2023/12/18 05:35:28;;;;;;;43.80;22.63;;;1.30;99.90;;;;;;5030984;28;20183;-69
2023/12/18 05:37:53;;;;;;;44.47;22.00;;;1.40;99.90;;;;;;5033504;28;20238;-69
2023/12/18 05:40:19;;;;;;;44.43;23.33;;;1.40;99.90;;;;;;5035274;28;20191;-69
2023/12/18 05:42:45;;;;;;;36.80;21.57;;;1.30;99.90;;;;;;5034738;28;20187;-69
2023/12/18 05:45:10;;;;;;;37.23;20.83;;;1.50;99.90;;;;;;5034669;28;20643;-69
2023/12/18 05:47:36;;;;;;;43.40;21.60;;;1.20;99.90;;;;;;5034710;28;20183;-69
2023/12/18 05:50:02;;;;;;;35.90;20.37;;;1.40;99.90;;;;;;5034445;28;20218;-69
2023/12/18 05:52:27;;;;;;;52.30;21.03;;;1.20;99.90;;;;;;5034298;28;20207;-69
2023/12/18 05:54:53;;;;;;;43.77;22.20;;;1.40;99.90;;;;;;5034375;28;20176;-69
2023/12/18 05:57:19;;;;;;;43.37;24.27;;;1.20;99.90;;;;;;5034945;28;20184;-69
2023/12/18 05:59:44;;;;;;;45.17;23.17;;;1.30;99.90;;;;;;5034632;28;20245;-69
2023/12/18 06:02:10;;;;;;;41.73;21.43;;;1.10;99.90;;;;;;5034419;28;20179;-69
2023/12/18 06:04:38;;;;;;;44.27;21.20;;;1.30;99.90;;;;;;5034494;28;20245;-70
2023/12/18 06:07:04;;;;;;;38.80;22.70;;;1.00;99.90;;;;;;5033715;28;20233;-70
2023/12/18 06:09:30;;;;;;;41.10;22.63;;;1.30;99.90;;;;;;5034182;28;20215;-70
2023/12/18 06:11:55;;;;;;;38.83;21.13;;;1.30;99.90;;;;;;5034203;28;20203;-70
2023/12/18 06:14:21;;;;;;;45.43;21.83;;;1.20;99.90;;;;;;5034550;28;20212;-70
2023/12/18 06:16:46;;;;;;;44.43;23.53;;;1.40;99.90;;;;;;5034816;28;20217;-70
2023/12/18 06:19:12;;;;;;;45.60;22.60;;;1.40;99.90;;;;;;5033751;28;20223;-70
2023/12/18 06:21:41;;;;;;;39.63;21.53;;;1.50;99.90;;;;;;5034543;28;20207;-71
2023/12/18 06:24:07;;;;;;;40.47;21.27;;;1.30;99.90;;;;;;5034459;28;20172;-70
2023/12/18 06:26:33;;;;;;;36.47;21.67;;;1.40;99.90;;;;;;5034379;28;20180;-70
2023/12/18 06:28:58;;;;;;;43.00;20.70;;;1.40;99.90;;;;;;5033960;28;20199;-71
2023/12/18 06:31:24;;;;;;;43.87;21.40;;;1.40;99.90;;;;;;5033853;28;20176;-70
2023/12/18 06:33:49;;;;;;;45.87;22.23;;;1.40;99.90;;;;;;5033535;28;20266;-71
2023/12/18 06:36:19;;;;;;;36.87;21.17;;;1.40;99.90;;;;;;5033979;28;20168;-71
2023/12/18 06:38:45;;;;;;;44.87;21.53;;;1.30;99.90;;;;;;5034757;28;20195;-71
2023/12/18 06:41:10;;;;;;;45.77;21.60;;;1.40;99.90;;;;;;5033604;28;20167;-70
2023/12/18 06:43:36;;;;;;;41.57;21.07;;;1.30;99.90;;;;;;5033608;28;20194;-72
2023/12/18 06:46:02;;;;;;;46.00;21.40;;;1.40;99.90;;;;;;5033477;28;20183;-70
2023/12/18 06:48:27;;;;;;;55.47;20.53;;;1.40;99.90;;;;;;5033517;28;20218;-70
2023/12/18 06:50:53;;;;;;;45.97;21.37;;;1.30;99.90;;;;;;5028705;28;20188;-70
2023/12/18 06:53:18;;;;;;;47.50;20.53;;;1.30;99.90;;;;;;5033225;28;20211;-70
2023/12/18 06:55:44;;;;;;;46.13;22.50;;;1.20;99.90;;;;;;5033544;28;20171;-71
2023/12/18 06:58:10;;;;;;;37.13;21.43;;;1.40;99.90;;;;;;5033478;28;20231;-70
2023/12/18 07:00:35;;;;;;;46.03;22.67;;;1.20;99.90;;;;;;5033556;28;20178;-70
2023/12/18 07:03:01;;;;;;;35.83;21.60;;;1.20;99.90;;;;;;5033113;28;20206;-70
2023/12/18 07:05:29;;;;;;;44.37;23.80;;;1.30;99.90;;;;;;5014077;28;20191;-70
2023/12/18 07:07:55;;;;;;;40.43;23.93;;;1.10;99.90;;;;;;5033180;28;20206;-70
2023/12/18 07:10:21;;;;;;;43.43;22.57;;;1.10;99.90;;;;;;5033114;28;20266;-70
2023/12/18 07:12:47;;;;;;;40.03;23.20;;;1.20;99.90;;;;;;5033178;28;20203;-70
2023/12/18 07:15:13;;;;;;;42.40;22.30;;;1.10;99.90;;;;;;5031881;28;20186;-70
2023/12/18 07:17:39;;;;;;;44.43;22.80;;;1.00;99.90;;;;;;5032774;28;20246;-71
2023/12/18 07:20:06;;;;;;;37.63;21.90;;;1.00;99.90;;;;;;5033268;28;20179;-71
2023/12/18 07:22:33;;;;;;;45.23;22.47;;;0.70;99.90;;;;;;5033038;28;20180;-71
2023/12/18 07:24:59;;;;;;;41.20;20.87;;;1.00;99.90;;;;;;5033051;28;20202;-71
2023/12/18 07:27:25;;;;;;;43.30;20.97;;;0.90;99.90;;;;;;5032892;28;20265;-70
2023/12/18 07:29:50;;;;;;;37.53;20.27;;;0.90;99.90;;;;;;5033074;28;20212;-71
2023/12/18 07:32:16;;;;;;;33.73;19.07;;;0.80;99.90;;;;;;5032685;28;20214;-70
2023/12/18 07:34:42;;;;;;;38.57;21.43;;;0.70;99.90;;;;;;5032625;28;20207;-70
2023/12/18 07:37:08;;;;;;;39.37;19.93;;;0.70;99.90;;;;;;5032770;28;20167;-71
2023/12/18 07:39:33;;;;;;;34.83;19.50;;;0.70;99.90;;;;;;5032451;28;20568;-70
2023/12/18 07:41:59;;;;;;;30.13;19.07;;;0.70;99.90;;;;;;5032221;28;20210;-71
2023/12/18 07:44:25;;;;;;;34.73;20.10;;;0.60;99.90;;;;;;5032464;28;20555;-70
2023/12/18 07:46:52;;;;;;;39.17;22.27;;;0.60;99.90;;;;;;5032747;28;20271;-70
2023/12/18 07:49:18;;;;;;;48.00;21.33;;;0.70;99.90;;;;;;5032266;28;20278;-69
2023/12/18 07:51:43;;;;;;;44.00;22.27;;;0.50;99.90;;;;;;5032417;28;20207;-69
2023/12/18 07:54:09;;;;;;;38.87;21.40;;;0.60;99.90;;;;;;5032218;28;20182;-69
2023/12/18 07:56:35;;;;;;;34.77;21.70;;;0.70;99.90;;;;;;5031261;28;20595;-69
2023/12/18 07:59:00;;;;;;;44.93;22.27;;;0.80;99.90;;;;;;5028469;28;20562;-69
2023/12/18 08:01:26;;;;;;;39.27;21.63;;;1.00;99.90;;;;;;5032567;28;20215;-69
2023/12/18 08:03:52;;;;;;;43.57;21.93;;;1.10;99.90;;;;;;5031900;28;20183;-69
2023/12/18 08:06:18;;;;;;;32.97;20.80;;;1.10;99.90;;;;;;5032028;28;20279;-69
2023/12/18 08:08:44;;;;;;;49.60;21.87;;;1.00;99.90;;;;;;5031946;28;20184;-69
2023/12/18 08:11:10;;;;;;;37.57;21.57;;;1.10;99.90;;;;;;5031636;28;20206;-69
2023/12/18 08:13:38;;;;;;;38.20;21.43;;;1.20;99.90;;;;;;5031859;28;20249;-69
2023/12/18 08:16:06;;;;;;;47.77;22.27;;;1.40;99.90;;;;;;5032105;28;20202;-69
2023/12/18 08:18:31;;;;;;;38.63;22.27;;;1.40;99.90;;;;;;5031928;28;20245;-69
2023/12/18 08:20:57;;;;;;;39.70;21.00;;;1.50;99.90;;;;;;5031784;28;20225;-69
2023/12/18 08:23:23;;;;;;;41.33;24.77;;;1.40;99.90;;;;;;5031644;28;20262;-69
2023/12/18 08:25:48;;;;;;;43.83;25.93;;;1.60;99.90;;;;;;5031723;28;20580;-69
2023/12/18 08:28:14;;;;;;;51.13;24.90;;;1.60;99.90;;;;;;5031565;28;20199;-70
2023/12/18 08:30:39;;;;;;;49.93;25.63;;;1.70;99.90;;;;;;5031967;28;20269;-69
2023/12/18 08:33:05;;;;;;;46.13;25.80;;;1.90;99.90;;;;;;5031255;28;20253;-69
2023/12/18 08:35:30;;;;;;;50.80;27.50;;;1.80;99.90;;;;;;5031772;28;20568;-69
2023/12/18 08:37:56;;;;;;;45.00;26.57;;;2.10;99.90;;;;;;5031369;28;20203;-69
2023/12/18 08:40:22;;;;;;;55.13;26.07;;;2.20;99.90;;;;;;5031773;28;20175;-69
2023/12/18 08:42:48;;;;;;;42.33;25.37;;;2.30;99.90;;;;;;5031837;28;20179;-69
2023/12/18 08:45:13;;;;;;;71.77;32.70;;;2.30;99.90;;;;;;5031287;28;20194;-69
2023/12/18 08:47:39;;;;;;;55.90;28.90;;;2.30;99.90;;;;;;5031457;28;20176;-69
2023/12/18 08:50:05;;;;;;;56.47;25.17;;;2.50;99.90;;;;;;5031399;28;20256;-69
2023/12/18 08:52:30;;;;;;;41.77;24.90;;;2.70;99.90;;;;;;5030983;28;20206;-69
2023/12/18 08:54:56;;;;;;;46.70;22.80;;;3.00;99.90;;;;;;5031056;28;20595;-69
2023/12/18 08:57:22;;;;;;;48.47;24.07;;;3.10;99.90;;;;;;5031244;28;20237;-69
2023/12/18 08:59:50;;;;;;;48.63;24.93;;;3.20;99.90;;;;;;5031067;28;20274;-69
2023/12/18 09:02:15;;;;;;;54.00;26.37;;;3.40;99.90;;;;;;5030942;28;20175;-69
2023/12/18 09:04:41;;;;;;;51.13;26.00;;;3.50;99.90;;;;;;5030912;28;20175;-69
2023/12/18 09:07:07;;;;;;;53.67;25.43;;;3.60;99.90;;;;;;5030763;28;20195;-69
2023/12/18 09:09:33;;;;;;;60.93;27.03;;;3.80;99.90;;;;;;5030851;28;20242;-69
2023/12/18 09:11:58;;;;;;;54.60;26.87;;;3.70;99.90;;;;;;5030265;28;20560;-69
2023/12/18 09:14:24;;;;;;;60.40;28.30;;;3.60;99.90;;;;;;5031301;28;20199;-69
2023/12/18 09:16:49;;;;;;;64.17;28.53;;;3.60;99.90;;;;;;5031825;28;20167;-69
2023/12/18 09:19:15;;;;;;;95.37;34.03;;;3.50;99.90;;;;;;5031535;28;20207;-69
2023/12/18 09:21:41;;;;;;;69.23;32.23;;;3.80;99.90;;;;;;5031671;28;20505;-69
2023/12/18 09:24:07;;;;;;;69.97;31.83;;;4.30;99.90;;;;;;5029468;28;20250;-69
2023/12/18 09:26:33;;;;;;;65.33;32.50;;;4.80;99.90;;;;;;5030925;28;20191;-69
2023/12/18 09:28:59;;;;;;;75.23;34.03;;;5.50;99.90;;;;;;5030386;28;20198;-69
2023/12/18 09:31:25;;;;;;;68.30;31.47;;;6.20;99.90;;;;;;5030605;28;20182;-69
2023/12/18 09:33:50;;;;;;;49.87;27.87;;;6.90;99.90;;;;;;5030764;28;20167;-69
2023/12/18 09:36:17;;;;;;;44.20;26.23;;;7.40;99.90;;;;;;5029616;28;20207;-69
2023/12/18 09:38:43;;;;;;;38.40;24.73;;;7.80;99.90;;;;;;5030815;28;20191;-69
2023/12/18 09:41:08;;;;;;;28.13;19.57;;;8.20;99.90;;;;;;5029397;28;20163;-69
2023/12/18 09:43:34;;;;;;;29.00;19.53;;;8.20;99.90;;;;;;5030366;28;20595;-69
2023/12/18 09:46:00;;;;;;;24.33;17.87;;;8.50;99.90;;;;;;5030653;28;20178;-69
2023/12/18 09:48:26;;;;;;;24.77;18.50;;;8.50;99.90;;;;;;5030813;28;20207;-69
2023/12/18 09:50:51;;;;;;;25.87;16.77;;;8.60;99.90;;;;;;5030865;28;20674;-69
2023/12/18 09:53:20;;;;;;;23.90;15.63;;;8.60;99.90;;;;;;5030429;28;20210;-69
2023/12/18 09:55:48;;;;;;;24.07;15.60;;;8.50;99.90;;;;;;5029220;28;20171;-69
2023/12/18 09:58:15;;;;;;;23.73;15.13;;;8.50;99.90;;;;;;5030760;28;20191;-69
2023/12/18 10:00:41;;;;;;;23.40;16.50;;;8.30;99.90;;;;;;5030590;28;20297;-69
2023/12/18 10:03:06;;;;;;;21.50;15.10;;;8.30;99.90;;;;;;5030560;28;20257;-69
2023/12/18 10:05:32;;;;;;;22.10;15.57;;;8.40;99.90;;;;;;5029250;28;20709;-69
2023/12/18 10:08:01;;;;;;;24.40;17.53;;;8.40;99.90;;;;;;5030594;28;20215;-69
2023/12/18 10:10:27;;;;;;;22.50;17.27;;;8.30;99.90;;;;;;5030907;28;20261;-69
2023/12/18 10:12:53;;;;;;;19.30;14.77;;;8.60;99.90;;;;;;5028939;28;20238;-69
2023/12/18 10:15:18;;;;;;;21.00;15.10;;;8.80;99.90;;;;;;5030481;28;20270;-69
2023/12/18 10:17:45;;;;;;;21.43;14.93;;;8.80;99.90;;;;;;5030437;28;20563;-69
2023/12/18 10:20:12;;;;;;;17.87;13.90;;;8.80;99.90;;;;;;5030462;28;20172;-69
2023/12/18 10:22:41;;;;;;;22.50;14.53;;;9.00;99.90;;;;;;5031291;28;20221;-69
2023/12/18 10:25:08;;;;;;;19.67;14.13;;;9.00;99.90;;;;;;5033852;28;20181;-69
2023/12/18 10:27:38;;;;;;;20.83;14.40;;;9.10;99.90;;;;;;5034180;28;20167;-69
2023/12/18 10:30:05;;;;;;;24.17;14.97;;;9.20;99.90;;;;;;5034016;28;20613;-69
2023/12/18 10:32:31;;;;;;;17.40;14.17;;;9.00;99.90;;;;;;5032779;28;20306;-69
2023/12/18 10:34:57;;;;;;;16.37;12.97;;;9.20;99.90;;;;;;5014077;28;20228;-69
2023/12/18 10:37:25;;;;;;;21.97;13.87;;;9.30;99.90;;;;;;5014180;28;20180;-69
2023/12/18 10:39:58;;;;;;;21.30;14.27;;;9.40;99.90;;;;;;5021560;28;20234;-69
2023/12/18 10:42:33;;;;;;;20.17;13.93;;;9.60;99.90;;;;;;5032973;28;20241;-69
2023/12/18 10:45:01;;;;;;;17.10;13.40;;;9.90;99.90;;;;;;5032957;28;20715;-69
2023/12/18 10:47:28;;;;;;;13.87;12.37;;;10.00;99.90;;;;;;5032428;28;20187;-70
2023/12/18 10:49:57;;;;;;;14.13;12.03;;;10.20;99.90;;;;;;5033674;28;20538;-69
2023/12/18 10:52:23;;;;;;;14.23;12.83;;;10.10;99.90;;;;;;5032927;28;20206;-69
2023/12/18 10:54:51;;;;;;;18.33;13.13;;;10.30;99.90;;;;;;5018587;28;20179;-69
2023/12/18 10:57:19;;;;;;;17.53;12.67;;;10.40;99.90;;;;;;5033672;28;20172;-69
2023/12/18 10:59:49;;;;;;;16.13;12.50;;;10.20;99.90;;;;;;5022007;28;20192;-69
2023/12/18 11:02:15;;;;;;;16.93;12.07;;;9.90;99.90;;;;;;5013448;28;20244;-69
2023/12/18 11:04:43;;;;;;;14.03;11.60;;;9.70;99.90;;;;;;5013615;28;20172;-69
2023/12/18 11:07:10;;;;;;;14.10;11.27;;;9.70;99.90;;;;;;5013297;28;20263;-69
2023/12/18 11:09:36;;;;;;;17.27;12.43;;;9.80;99.90;;;;;;5013559;28;20283;-69
2023/12/18 11:12:04;;;;;;;15.33;11.97;;;9.90;99.90;;;;;;5023414;28;20278;-69
2023/12/18 11:15:00;;;;;;;15.53;12.97;;;9.60;99.90;;;;;;5033337;28;20171;-69
2023/12/18 11:17:37;;;;;;;14.80;12.43;;;9.30;99.90;;;;;;5033249;28;20196;-69
2023/12/18 11:20:22;;;;;;;14.83;12.60;;;9.00;99.90;;;;;;5033118;28;20262;-69
2023/12/18 11:22:52;;;;;;;16.27;12.60;;;8.70;99.90;;;;;;5033072;28;20636;-69
2023/12/18 11:25:17;;;;;;;15.57;11.47;;;8.60;99.90;;;;;;5033127;28;20586;-69
2023/12/18 11:27:43;;;;;;;15.23;12.50;;;8.80;99.90;;;;;;5031293;28;20180;-69
2023/12/18 11:30:23;;;;;;;14.70;11.40;;;8.90;99.90;;;;;;5032922;28;20179;-69
2023/12/18 11:32:50;;;;;;;14.73;12.37;;;8.80;99.90;;;;;;5033028;28;20256;-69
2023/12/18 11:35:20;;;;;;;14.17;12.03;;;8.70;99.90;;;;;;5030118;28;20194;-68
2023/12/18 11:37:48;;;;;;;13.27;11.87;;;8.70;99.90;;;;;;5032858;28;20164;-69
2023/12/18 11:40:30;;;;;;;13.80;11.33;;;8.70;99.90;;;;;;5032282;28;20615;-69
2023/12/18 11:42:56;;;;;;;15.47;12.27;;;8.60;1.00;;;;;;5032794;28;20269;-69
2023/12/18 11:45:24;;;;;;;14.90;11.23;;;8.40;99.90;;;;;;5032741;28;20665;-69
2023/12/18 11:47:54;;;;;;;16.10;11.73;;;8.30;99.90;;;;;;5032662;28;20202;-69
2023/12/18 11:50:22;;;;;;;13.10;11.43;;;8.30;99.90;;;;;;5032521;28;20620;-69
2023/12/18 11:52:49;;;;;;;13.90;11.77;;;8.30;99.90;;;;;;5022551;28;20200;-69
2023/12/18 11:55:40;;;;;;;14.87;10.40;;;8.30;37.00;;;;;;5012474;28;20176;-69
2023/12/18 11:58:07;;;;;;;16.97;11.93;;;8.40;29.80;;;;;;5019517;28;20554;-69
2023/12/18 12:00:34;;;;;;;13.57;11.17;;;8.50;55.20;;;;;;5032550;28;20752;-69
2023/12/18 12:03:03;;;;;;;13.93;10.13;;;8.60;72.90;;;;;;5032098;28;20171;-69
2023/12/18 12:05:31;;;;;;;13.37;11.17;;;8.70;14.90;;;;;;5032876;28;20194;-69
2023/12/18 12:07:56;;;;;;;15.87;12.50;;;8.70;4.60;;;;;;5032300;28;20226;-69
2023/12/18 12:10:22;;;;;;;13.37;10.93;;;8.90;67.30;;;;;;5032234;28;20651;-69
2023/12/18 12:12:55;;;;;;;14.10;12.03;;;8.80;1.00;;;;;;5032239;28;20199;-69
2023/12/18 12:15:28;;;;;;;15.83;12.67;;;8.60;1.00;;;;;;5031981;28;20230;-69
2023/12/18 12:18:04;;;;;;;16.70;12.63;;;8.50;1.00;;;;;;5031725;28;20219;-69
2023/12/18 12:20:30;;;;;;;11.80;10.63;;;8.50;1.00;;;;;;5032442;28;20164;-69
2023/12/18 12:22:57;;;;;;;17.90;11.20;;;8.60;1.00;;;;;;5031537;28;20651;-69
2023/12/18 12:25:22;;;;;;;13.30;10.73;;;8.60;1.00;;;;;;5026712;28;20171;-69
2023/12/18 12:27:48;;;;;;;13.10;11.07;;;8.60;1.00;;;;;;5031981;28;20195;-70
2023/12/18 12:30:14;;;;;;;13.37;9.87;;;8.50;1.00;;;;;;5027239;28;20176;-69
2023/12/18 12:32:40;;;;;;;9.13;8.23;;;8.30;1.00;;;;;;5022469;28;20743;-69
2023/12/18 12:35:09;;;;;;;8.00;7.30;;;8.10;1.00;;;;;;5018319;28;20538;-69